sensor_id;sensor_type;location;lat;lon;timestamp;temperature;humidity
14008;DHT22;61651;45.508;12.232;2022-08-04T00:03:11;28.40;99.90
14008;DHT22;61651;45.508;12.232;2022-08-04T00:06:21;28.40;99.90
14008;DHT22;61651;45.508;12.232;2022-08-04T00:09:29;28.50;99.90
14008;DHT22;61651;45.508;12.232;2022-08-04T00:12:40;28.40;99.90
14008;DHT22;61651;45.508;12.232;2022-08-04T00:15:45;28.40;99.90
14008;DHT22;61651;45.508;12.232;2022-08-04T00:18:51;28.40;99.90
14008;DHT22;61651;45.508;12.232;2022-08-04T00:21:59;28.40;99.90
14008;DHT22;61651;45.508;12.232;2022-08-04T00:25:02;28.30;99.90
14008;DHT22;61651;45.508;12.232;2022-08-04T00:28:04;28.30;99.90
14008;DHT22;61651;45.508;12.232;2022-08-04T00:31:09;28.30;99.90
14008;DHT22;61651;45.508;12.232;2022-08-04T00:34:11;28.30;99.90
14008;DHT22;61651;45.508;12.232;2022-08-04T00:37:16;28.20;99.90
14008;DHT22;61651;45.508;12.232;2022-08-04T00:40:32;28.20;99.90
14008;DHT22;61651;45.508;12.232;2022-08-04T00:43:41;28.30;99.90
14008;DHT22;61651;45.508;12.232;2022-08-04T00:47:08;28.20;99.90
14008;DHT22;61651;45.508;12.232;2022-08-04T00:50:20;28.20;99.90
14008;DHT22;61651;45.508;12.232;2022-08-04T00:53:31;28.20;99.90
14008;DHT22;61651;45.508;12.232;2022-08-04T00:56:48;28.20;99.90
14008;DHT22;61651;45.508;12.232;2022-08-04T01:00:03;28.20;99.90
14008;DHT22;61651;45.508;12.232;2022-08-04T01:03:11;28.10;99.90
14008;DHT22;61651;45.508;12.232;2022-08-04T01:06:23;28.10;99.90
14008;DHT22;61651;45.508;12.232;2022-08-04T01:09:41;28.00;99.90
14008;DHT22;61651;45.508;12.232;2022-08-04T01:12:59;28.00;99.90
14008;DHT22;61651;45.508;12.232;2022-08-04T01:16:04;28.00;99.90
14008;DHT22;61651;45.508;12.232;2022-08-04T01:19:14;28.10;99.90
14008;DHT22;61651;45.508;12.232;2022-08-04T01:29:23;28.20;99.90
14008;DHT22;61651;45.508;12.232;2022-08-04T01:32:31;28.20;99.90
14008;DHT22;61651;45.508;12.232;2022-08-04T01:35:37;28.20;99.90
14008;DHT22;61651;45.508;12.232;2022-08-04T01:38:53;28.20;99.90
14008;DHT22;61651;45.508;12.232;2022-08-04T01:41:55;28.20;99.90
14008;DHT22;61651;45.508;12.232;2022-08-04T01:45:02;28.10;99.90
14008;DHT22;61651;45.508;12.232;2022-08-04T01:48:06;28.10;99.90
14008;DHT22;61651;45.508;12.232;2022-08-04T01:51:09;28.00;99.90
14008;DHT22;61651;45.508;12.232;2022-08-04T01:54:12;27.90;99.90
14008;DHT22;61651;45.508;12.232;2022-08-04T01:57:16;27.90;99.90
14008;DHT22;61651;45.508;12.232;2022-08-04T02:00:22;27.90;99.90
14008;DHT22;61651;45.508;12.232;2022-08-04T02:03:26;28.00;99.90
14008;DHT22;61651;45.508;12.232;2022-08-04T02:06:31;28.00;99.90
14008;DHT22;61651;45.508;12.232;2022-08-04T02:09:46;27.90;99.90
14008;DHT22;61651;45.508;12.232;2022-08-04T02:13:07;27.80;99.90
14008;DHT22;61651;45.508;12.232;2022-08-04T02:16:18;27.80;99.90
14008;DHT22;61651;45.508;12.232;2022-08-04T02:19:32;27.80;99.90
14008;DHT22;61651;45.508;12.232;2022-08-04T02:22:43;27.70;99.90
14008;DHT22;61651;45.508;12.232;2022-08-04T02:25:52;27.70;99.90
14008;DHT22;61651;45.508;12.232;2022-08-04T02:29:00;27.70;99.90
14008;DHT22;61651;45.508;12.232;2022-08-04T02:32:12;27.70;99.90
14008;DHT22;61651;45.508;12.232;2022-08-04T02:35:21;27.60;99.90
14008;DHT22;61651;45.508;12.232;2022-08-04T02:38:31;27.60;99.90
14008;DHT22;61651;45.508;12.232;2022-08-04T02:41:37;27.60;99.90
14008;DHT22;61651;45.508;12.232;2022-08-04T02:44:40;27.60;99.90
14008;DHT22;61651;45.508;12.232;2022-08-04T02:47:45;27.70;99.90
14008;DHT22;61651;45.508;12.232;2022-08-04T02:50:50;27.70;99.90
14008;DHT22;61651;45.508;12.232;2022-08-04T02:53:56;27.70;99.90
14008;DHT22;61651;45.508;12.232;2022-08-04T02:56:59;27.70;99.90
14008;DHT22;61651;45.508;12.232;2022-08-04T03:00:06;27.70;99.90
14008;DHT22;61651;45.508;12.232;2022-08-04T03:03:22;27.70;99.90
14008;DHT22;61651;45.508;12.232;2022-08-04T03:10:17;27.70;99.90
14008;DHT22;61651;45.508;12.232;2022-08-04T03:13:43;27.70;99.90
14008;DHT22;61651;45.508;12.232;2022-08-04T03:17:26;27.70;99.90
14008;DHT22;61651;45.508;12.232;2022-08-04T03:21:02;27.70;99.90
14008;DHT22;61651;45.508;12.232;2022-08-04T03:24:31;27.60;99.90
14008;DHT22;61651;45.508;12.232;2022-08-04T03:28:16;27.50;99.90
14008;DHT22;61651;45.508;12.232;2022-08-04T03:31:51;27.30;99.90
14008;DHT22;61651;45.508;12.232;2022-08-04T03:35:13;27.40;99.90
14008;DHT22;61651;45.508;12.232;2022-08-04T03:38:34;27.40;99.90
14008;DHT22;61651;45.508;12.232;2022-08-04T03:42:07;27.30;99.90
14008;DHT22;61651;45.508;12.232;2022-08-04T03:53:08;27.30;99.90
14008;DHT22;61651;45.508;12.232;2022-08-04T04:00:10;27.20;99.90
14008;DHT22;61651;45.508;12.232;2022-08-04T04:03:40;27.10;99.90
14008;DHT22;61651;45.508;12.232;2022-08-04T04:07:27;27.10;99.90
14008;DHT22;61651;45.508;12.232;2022-08-04T04:10:52;27.00;99.90
14008;DHT22;61651;45.508;12.232;2022-08-04T04:17:53;26.80;99.90
14008;DHT22;61651;45.508;12.232;2022-08-04T04:21:28;26.70;99.90
14008;DHT22;61651;45.508;12.232;2022-08-04T04:24:48;26.70;99.90
14008;DHT22;61651;45.508;12.232;2022-08-04T04:31:33;26.80;99.90
14008;DHT22;61651;45.508;12.232;2022-08-04T04:34:48;26.80;99.90
14008;DHT22;61651;45.508;12.232;2022-08-04T04:38:01;26.80;99.90
14008;DHT22;61651;45.508;12.232;2022-08-04T04:41:19;26.80;99.90
14008;DHT22;61651;45.508;12.232;2022-08-04T04:45:00;26.80;99.90
14008;DHT22;61651;45.508;12.232;2022-08-04T04:48:08;26.80;99.90
14008;DHT22;61651;45.508;12.232;2022-08-04T04:51:23;26.80;99.90
14008;DHT22;61651;45.508;12.232;2022-08-04T04:54:32;26.90;99.90
14008;DHT22;61651;45.508;12.232;2022-08-04T04:57:35;27.00;99.90
14008;DHT22;61651;45.508;12.232;2022-08-04T05:00:54;27.00;99.90
14008;DHT22;61651;45.508;12.232;2022-08-04T05:08:10;27.10;99.90
14008;DHT22;61651;45.508;12.232;2022-08-04T05:11:43;27.20;99.90
14008;DHT22;61651;45.508;12.232;2022-08-04T05:14:48;27.20;99.90
14008;DHT22;61651;45.508;12.232;2022-08-04T05:17:53;27.20;99.90
14008;DHT22;61651;45.508;12.232;2022-08-04T05:20:59;27.20;99.90
14008;DHT22;61651;45.508;12.232;2022-08-04T05:24:09;27.20;99.90
14008;DHT22;61651;45.508;12.232;2022-08-04T05:27:16;27.30;99.90
14008;DHT22;61651;45.508;12.232;2022-08-04T05:30:20;27.40;99.90
14008;DHT22;61651;45.508;12.232;2022-08-04T05:33:26;27.40;99.90
14008;DHT22;61651;45.508;12.232;2022-08-04T05:36:40;27.50;99.90
14008;DHT22;61651;45.508;12.232;2022-08-04T05:39:48;27.60;99.90
14008;DHT22;61651;45.508;12.232;2022-08-04T05:42:50;27.70;99.90
14008;DHT22;61651;45.508;12.232;2022-08-04T05:45:53;27.70;99.90
14008;DHT22;61651;45.508;12.232;2022-08-04T05:48:57;27.80;99.90
14008;DHT22;61651;45.508;12.232;2022-08-04T05:52:02;27.80;99.90
14008;DHT22;61651;45.508;12.232;2022-08-04T05:55:07;27.90;99.90
14008;DHT22;61651;45.508;12.232;2022-08-04T05:58:13;28.00;99.90
14008;DHT22;61651;45.508;12.232;2022-08-04T06:01:21;28.10;99.90
14008;DHT22;61651;45.508;12.232;2022-08-04T06:04:34;28.10;99.90
14008;DHT22;61651;45.508;12.232;2022-08-04T06:07:37;28.20;99.90
14008;DHT22;61651;45.508;12.232;2022-08-04T06:10:45;28.30;99.90
14008;DHT22;61651;45.508;12.232;2022-08-04T06:13:52;28.30;99.90
14008;DHT22;61651;45.508;12.232;2022-08-04T06:16:55;28.40;99.90
14008;DHT22;61651;45.508;12.232;2022-08-04T06:19:58;28.40;99.90
14008;DHT22;61651;45.508;12.232;2022-08-04T06:23:05;28.50;99.90
14008;DHT22;61651;45.508;12.232;2022-08-04T06:26:13;28.60;99.90
14008;DHT22;61651;45.508;12.232;2022-08-04T06:29:20;28.70;99.90
14008;DHT22;61651;45.508;12.232;2022-08-04T06:32:28;28.70;99.90
14008;DHT22;61651;45.508;12.232;2022-08-04T06:35:36;28.80;99.90
14008;DHT22;61651;45.508;12.232;2022-08-04T06:38:39;28.80;99.90
14008;DHT22;61651;45.508;12.232;2022-08-04T06:41:43;28.90;99.90
14008;DHT22;61651;45.508;12.232;2022-08-04T06:44:48;29.00;99.90
14008;DHT22;61651;45.508;12.232;2022-08-04T06:47:50;29.00;99.90
14008;DHT22;61651;45.508;12.232;2022-08-04T06:50:54;29.10;99.90
14008;DHT22;61651;45.508;12.232;2022-08-04T06:53:56;29.20;99.90
14008;DHT22;61651;45.508;12.232;2022-08-04T06:57:00;29.20;99.90
14008;DHT22;61651;45.508;12.232;2022-08-04T07:00:06;29.30;99.90
14008;DHT22;61651;45.508;12.232;2022-08-04T07:03:10;29.30;99.90
14008;DHT22;61651;45.508;12.232;2022-08-04T07:06:13;29.30;99.90
14008;DHT22;61651;45.508;12.232;2022-08-04T07:09:15;29.40;99.90
14008;DHT22;61651;45.508;12.232;2022-08-04T07:12:19;29.50;99.90
14008;DHT22;61651;45.508;12.232;2022-08-04T07:15:22;29.50;99.90
14008;DHT22;61651;45.508;12.232;2022-08-04T07:18:25;29.50;99.90
14008;DHT22;61651;45.508;12.232;2022-08-04T07:21:29;29.60;99.90
14008;DHT22;61651;45.508;12.232;2022-08-04T07:24:33;29.70;99.90
14008;DHT22;61651;45.508;12.232;2022-08-04T07:27:36;29.80;99.90
14008;DHT22;61651;45.508;12.232;2022-08-04T07:30:39;29.80;99.90
14008;DHT22;61651;45.508;12.232;2022-08-04T07:33:41;29.70;99.90
14008;DHT22;61651;45.508;12.232;2022-08-04T07:36:44;29.90;99.90
14008;DHT22;61651;45.508;12.232;2022-08-04T07:39:46;29.90;99.90
14008;DHT22;61651;45.508;12.232;2022-08-04T07:42:50;29.90;99.90
14008;DHT22;61651;45.508;12.232;2022-08-04T07:45:52;29.90;99.90
14008;DHT22;61651;45.508;12.232;2022-08-04T07:48:54;29.90;99.90
14008;DHT22;61651;45.508;12.232;2022-08-04T07:51:58;30.00;99.90
14008;DHT22;61651;45.508;12.232;2022-08-04T07:55:01;30.10;99.90
14008;DHT22;61651;45.508;12.232;2022-08-04T07:58:05;30.20;99.90
14008;DHT22;61651;45.508;12.232;2022-08-04T08:01:08;30.30;99.90
14008;DHT22;61651;45.508;12.232;2022-08-04T08:04:10;30.40;99.90
14008;DHT22;61651;45.508;12.232;2022-08-04T08:07:13;30.50;99.90
14008;DHT22;61651;45.508;12.232;2022-08-04T08:10:15;30.50;99.90
14008;DHT22;61651;45.508;12.232;2022-08-04T08:13:19;30.50;99.90
14008;DHT22;61651;45.508;12.232;2022-08-04T08:16:21;30.60;99.90
14008;DHT22;61651;45.508;12.232;2022-08-04T08:19:23;30.70;99.90
14008;DHT22;61651;45.508;12.232;2022-08-04T08:22:25;30.80;99.90
14008;DHT22;61651;45.508;12.232;2022-08-04T08:25:29;31.00;99.90
14008;DHT22;61651;45.508;12.232;2022-08-04T08:28:33;31.00;99.90
14008;DHT22;61651;45.508;12.232;2022-08-04T08:31:35;31.00;99.90
14008;DHT22;61651;45.508;12.232;2022-08-04T08:34:37;31.30;99.90
14008;DHT22;61651;45.508;12.232;2022-08-04T08:37:45;31.50;99.90
14008;DHT22;61651;45.508;12.232;2022-08-04T08:40:54;31.70;99.90
14008;DHT22;61651;45.508;12.232;2022-08-04T08:44:10;31.90;99.90
14008;DHT22;61651;45.508;12.232;2022-08-04T08:47:26;32.00;99.90
14008;DHT22;61651;45.508;12.232;2022-08-04T08:58:20;32.20;99.90
14008;DHT22;61651;45.508;12.232;2022-08-04T09:01:37;32.30;99.90
14008;DHT22;61651;45.508;12.232;2022-08-04T09:05:05;32.20;99.90
14008;DHT22;61651;45.508;12.232;2022-08-04T09:08:22;32.30;99.90
14008;DHT22;61651;45.508;12.232;2022-08-04T09:11:33;32.40;99.90
14008;DHT22;61651;45.508;12.232;2022-08-04T09:14:43;32.60;99.90
14008;DHT22;61651;45.508;12.232;2022-08-04T09:17:51;32.40;99.90
14008;DHT22;61651;45.508;12.232;2022-08-04T09:20:59;32.30;99.90
14008;DHT22;61651;45.508;12.232;2022-08-04T09:24:09;32.40;99.90
14008;DHT22;61651;45.508;12.232;2022-08-04T09:27:15;32.60;99.90
14008;DHT22;61651;45.508;12.232;2022-08-04T09:30:20;32.70;99.90
14008;DHT22;61651;45.508;12.232;2022-08-04T09:33:33;32.60;99.30
14008;DHT22;61651;45.508;12.232;2022-08-04T09:36:46;32.90;99.20
14008;DHT22;61651;45.508;12.232;2022-08-04T09:40:01;33.10;99.80
14008;DHT22;61651;45.508;12.232;2022-08-04T09:43:16;33.00;99.00
14008;DHT22;61651;45.508;12.232;2022-08-04T09:46:24;33.20;98.40
14008;DHT22;61651;45.508;12.232;2022-08-04T09:49:32;33.50;98.70
14008;DHT22;61651;45.508;12.232;2022-08-04T09:52:43;33.60;98.20
14008;DHT22;61651;45.508;12.232;2022-08-04T09:55:54;33.80;98.20
14008;DHT22;61651;45.508;12.232;2022-08-04T09:59:08;33.80;96.60
14008;DHT22;61651;45.508;12.232;2022-08-04T10:02:14;33.70;97.10
14008;DHT22;61651;45.508;12.232;2022-08-04T10:05:24;33.70;97.60
14008;DHT22;61651;45.508;12.232;2022-08-04T10:08:42;33.80;97.30
14008;DHT22;61651;45.508;12.232;2022-08-04T10:15:27;34.00;97.20
14008;DHT22;61651;45.508;12.232;2022-08-04T10:18:39;33.90;96.70
14008;DHT22;61651;45.508;12.232;2022-08-04T10:21:54;34.10;97.60
14008;DHT22;61651;45.508;12.232;2022-08-04T10:25:04;34.30;98.10
14008;DHT22;61651;45.508;12.232;2022-08-04T10:28:12;34.20;96.00
14008;DHT22;61651;45.508;12.232;2022-08-04T10:31:21;34.50;97.00
14008;DHT22;61651;45.508;12.232;2022-08-04T10:34:27;34.80;96.50
14008;DHT22;61651;45.508;12.232;2022-08-04T10:37:38;35.10;99.00
14008;DHT22;61651;45.508;12.232;2022-08-04T10:40:44;35.00;95.70
14008;DHT22;61651;45.508;12.232;2022-08-04T10:44:00;34.70;94.70
14008;DHT22;61651;45.508;12.232;2022-08-04T10:47:13;34.20;94.00
14008;DHT22;61651;45.508;12.232;2022-08-04T10:50:19;34.00;94.30
14008;DHT22;61651;45.508;12.232;2022-08-04T10:53:24;33.80;95.60
14008;DHT22;61651;45.508;12.232;2022-08-04T10:56:31;34.00;95.70
14008;DHT22;61651;45.508;12.232;2022-08-04T10:59:39;34.30;99.90
14008;DHT22;61651;45.508;12.232;2022-08-04T11:02:48;34.60;99.70
14008;DHT22;61651;45.508;12.232;2022-08-04T11:05:53;35.00;99.90
14008;DHT22;61651;45.508;12.232;2022-08-04T11:08:58;35.20;98.70
14008;DHT22;61651;45.508;12.232;2022-08-04T11:12:06;35.10;98.30
14008;DHT22;61651;45.508;12.232;2022-08-04T11:15:14;35.30;98.70
14008;DHT22;61651;45.508;12.232;2022-08-04T11:18:33;35.40;98.70
14008;DHT22;61651;45.508;12.232;2022-08-04T11:21:42;35.80;98.80
14008;DHT22;61651;45.508;12.232;2022-08-04T11:24:51;36.10;98.60
14008;DHT22;61651;45.508;12.232;2022-08-04T11:28:02;36.30;97.40
14008;DHT22;61651;45.508;12.232;2022-08-04T11:31:10;36.40;96.80
14008;DHT22;61651;45.508;12.232;2022-08-04T11:34:18;36.60;97.20
14008;DHT22;61651;45.508;12.232;2022-08-04T11:37:24;36.70;96.80
14008;DHT22;61651;45.508;12.232;2022-08-04T11:40:36;36.80;96.80
14008;DHT22;61651;45.508;12.232;2022-08-04T11:43:44;36.90;96.60
14008;DHT22;61651;45.508;12.232;2022-08-04T11:46:49;36.90;96.50
14008;DHT22;61651;45.508;12.232;2022-08-04T11:49:57;36.90;96.90
14008;DHT22;61651;45.508;12.232;2022-08-04T11:53:01;37.00;95.50
14008;DHT22;61651;45.508;12.232;2022-08-04T11:56:09;36.90;95.10
14008;DHT22;61651;45.508;12.232;2022-08-04T11:59:12;36.90;94.80
14008;DHT22;61651;45.508;12.232;2022-08-04T12:05:53;36.30;94.80
14008;DHT22;61651;45.508;12.232;2022-08-04T12:09:03;36.20;93.70
14008;DHT22;61651;45.508;12.232;2022-08-04T12:12:17;36.30;94.70
14008;DHT22;61651;45.508;12.232;2022-08-04T12:15:26;36.70;93.90
14008;DHT22;61651;45.508;12.232;2022-08-04T12:18:36;36.90;93.70
14008;DHT22;61651;45.508;12.232;2022-08-04T12:21:42;37.10;94.30
14008;DHT22;61651;45.508;12.232;2022-08-04T12:24:50;37.20;93.60
14008;DHT22;61651;45.508;12.232;2022-08-04T12:27:59;37.40;93.80
14008;DHT22;61651;45.508;12.232;2022-08-04T12:31:07;37.60;93.80
14008;DHT22;61651;45.508;12.232;2022-08-04T12:34:16;37.70;94.10
14008;DHT22;61651;45.508;12.232;2022-08-04T12:37:35;37.80;92.50
14008;DHT22;61651;45.508;12.232;2022-08-04T12:40:45;37.50;92.90
14008;DHT22;61651;45.508;12.232;2022-08-04T12:43:49;37.10;93.20
14008;DHT22;61651;45.508;12.232;2022-08-04T12:46:51;37.40;93.00
14008;DHT22;61651;45.508;12.232;2022-08-04T12:49:56;37.40;93.10
14008;DHT22;61651;45.508;12.232;2022-08-04T12:52:59;37.50;93.10
14008;DHT22;61651;45.508;12.232;2022-08-04T12:56:03;37.80;92.30
14008;DHT22;61651;45.508;12.232;2022-08-04T12:59:08;38.00;91.60
14008;DHT22;61651;45.508;12.232;2022-08-04T13:02:15;38.00;91.90
14008;DHT22;61651;45.508;12.232;2022-08-04T13:05:29;38.30;91.10
14008;DHT22;61651;45.508;12.232;2022-08-04T13:08:36;38.70;91.60
14008;DHT22;61651;45.508;12.232;2022-08-04T13:11:40;38.90;91.10
14008;DHT22;61651;45.508;12.232;2022-08-04T13:14:48;39.00;90.20
14008;DHT22;61651;45.508;12.232;2022-08-04T13:17:54;39.10;90.60
14008;DHT22;61651;45.508;12.232;2022-08-04T13:21:08;39.10;90.30
14008;DHT22;61651;45.508;12.232;2022-08-04T13:24:12;39.10;90.50
14008;DHT22;61651;45.508;12.232;2022-08-04T13:27:15;39.10;90.00
14008;DHT22;61651;45.508;12.232;2022-08-04T13:30:20;39.20;90.30
14008;DHT22;61651;45.508;12.232;2022-08-04T13:33:27;39.40;89.80
14008;DHT22;61651;45.508;12.232;2022-08-04T13:36:31;39.60;88.40
14008;DHT22;61651;45.508;12.232;2022-08-04T13:39:34;39.60;88.40
14008;DHT22;61651;45.508;12.232;2022-08-04T13:42:37;39.60;87.50
14008;DHT22;61651;45.508;12.232;2022-08-04T13:45:42;39.60;87.20
14008;DHT22;61651;45.508;12.232;2022-08-04T13:48:45;39.70;86.50
14008;DHT22;61651;45.508;12.232;2022-08-04T13:51:50;39.80;86.70
14008;DHT22;61651;45.508;12.232;2022-08-04T13:54:52;40.40;84.90
14008;DHT22;61651;45.508;12.232;2022-08-04T13:57:58;40.60;83.60
14008;DHT22;61651;45.508;12.232;2022-08-04T14:01:06;40.90;82.70
14008;DHT22;61651;45.508;12.232;2022-08-04T14:04:15;40.80;82.00
14008;DHT22;61651;45.508;12.232;2022-08-04T14:07:19;40.90;82.70
14008;DHT22;61651;45.508;12.232;2022-08-04T14:10:22;41.00;81.10
14008;DHT22;61651;45.508;12.232;2022-08-04T14:13:29;40.80;81.60
14008;DHT22;61651;45.508;12.232;2022-08-04T14:16:33;41.00;80.10
14008;DHT22;61651;45.508;12.232;2022-08-04T14:19:50;40.90;80.40
14008;DHT22;61651;45.508;12.232;2022-08-04T14:23:00;40.90;81.40
14008;DHT22;61651;45.508;12.232;2022-08-04T14:26:16;41.00;82.60
14008;DHT22;61651;45.508;12.232;2022-08-04T14:29:19;41.40;80.80
14008;DHT22;61651;45.508;12.232;2022-08-04T14:32:22;41.70;80.00
14008;DHT22;61651;45.508;12.232;2022-08-04T14:35:24;41.90;79.30
14008;DHT22;61651;45.508;12.232;2022-08-04T14:38:41;41.90;79.10
14008;DHT22;61651;45.508;12.232;2022-08-04T14:41:45;42.00;78.10
14008;DHT22;61651;45.508;12.232;2022-08-04T14:44:53;42.00;77.00
14008;DHT22;61651;45.508;12.232;2022-08-04T14:47:57;42.20;76.40
14008;DHT22;61651;45.508;12.232;2022-08-04T14:50:59;42.30;76.50
14008;DHT22;61651;45.508;12.232;2022-08-04T14:54:01;42.30;76.20
14008;DHT22;61651;45.508;12.232;2022-08-04T14:57:05;42.20;76.60
14008;DHT22;61651;45.508;12.232;2022-08-04T15:00:08;42.20;76.40
14008;DHT22;61651;45.508;12.232;2022-08-04T15:03:13;42.30;76.30
14008;DHT22;61651;45.508;12.232;2022-08-04T15:06:15;42.00;75.70
14008;DHT22;61651;45.508;12.232;2022-08-04T15:09:19;42.00;76.90
14008;DHT22;61651;45.508;12.232;2022-08-04T15:12:22;42.00;76.40
14008;DHT22;61651;45.508;12.232;2022-08-04T15:15:24;42.00;75.70
14008;DHT22;61651;45.508;12.232;2022-08-04T15:18:28;41.90;77.10
14008;DHT22;61651;45.508;12.232;2022-08-04T15:21:30;41.60;76.70
14008;DHT22;61651;45.508;12.232;2022-08-04T15:24:32;41.40;76.90
14008;DHT22;61651;45.508;12.232;2022-08-04T15:27:36;41.30;77.90
14008;DHT22;61651;45.508;12.232;2022-08-04T15:30:39;41.40;78.50
14008;DHT22;61651;45.508;12.232;2022-08-04T15:33:43;41.30;77.70
14008;DHT22;61651;45.508;12.232;2022-08-04T15:36:51;40.80;78.10
14008;DHT22;61651;45.508;12.232;2022-08-04T15:39:58;40.60;77.50
14008;DHT22;61651;45.508;12.232;2022-08-04T15:43:16;40.40;78.40
14008;DHT22;61651;45.508;12.232;2022-08-04T15:46:50;40.50;78.40
14008;DHT22;61651;45.508;12.232;2022-08-04T15:50:06;40.40;78.00
14008;DHT22;61651;45.508;12.232;2022-08-04T15:53:08;40.30;77.60
14008;DHT22;61651;45.508;12.232;2022-08-04T15:56:44;40.20;78.10
14008;DHT22;61651;45.508;12.232;2022-08-04T15:59:58;40.20;78.70
14008;DHT22;61651;45.508;12.232;2022-08-04T16:03:00;40.30;78.70
14008;DHT22;61651;45.508;12.232;2022-08-04T16:06:40;40.20;79.90
14008;DHT22;61651;45.508;12.232;2022-08-04T16:09:43;40.00;79.30
14008;DHT22;61651;45.508;12.232;2022-08-04T16:12:52;39.80;80.00
14008;DHT22;61651;45.508;12.232;2022-08-04T16:15:56;39.60;81.50
14008;DHT22;61651;45.508;12.232;2022-08-04T16:19:04;39.40;80.80
14008;DHT22;61651;45.508;12.232;2022-08-04T16:22:10;39.30;80.80
14008;DHT22;61651;45.508;12.232;2022-08-04T16:25:14;39.10;81.70
14008;DHT22;61651;45.508;12.232;2022-08-04T16:28:35;39.00;82.30
14008;DHT22;61651;45.508;12.232;2022-08-04T16:31:38;38.80;82.00
14008;DHT22;61651;45.508;12.232;2022-08-04T16:34:41;38.40;81.20
14008;DHT22;61651;45.508;12.232;2022-08-04T16:37:45;38.00;81.50
14008;DHT22;61651;45.508;12.232;2022-08-04T16:40:53;37.70;82.20
14008;DHT22;61651;45.508;12.232;2022-08-04T16:44:28;37.30;84.10
14008;DHT22;61651;45.508;12.232;2022-08-04T16:47:59;37.20;85.00
14008;DHT22;61651;45.508;12.232;2022-08-04T16:51:02;36.90;85.20
14008;DHT22;61651;45.508;12.232;2022-08-04T16:54:07;36.60;85.60
14008;DHT22;61651;45.508;12.232;2022-08-04T16:57:09;36.40;86.20
14008;DHT22;61651;45.508;12.232;2022-08-04T17:00:11;36.20;87.00
14008;DHT22;61651;45.508;12.232;2022-08-04T17:03:14;36.10;86.80
14008;DHT22;61651;45.508;12.232;2022-08-04T17:06:16;35.90;87.80
14008;DHT22;61651;45.508;12.232;2022-08-04T17:09:19;35.70;86.70
14008;DHT22;61651;45.508;12.232;2022-08-04T17:12:27;35.70;87.40
14008;DHT22;61651;45.508;12.232;2022-08-04T17:15:29;35.60;87.10
14008;DHT22;61651;45.508;12.232;2022-08-04T17:18:33;35.50;87.80
14008;DHT22;61651;45.508;12.232;2022-08-04T17:21:37;35.40;88.60
14008;DHT22;61651;45.508;12.232;2022-08-04T17:24:41;35.30;89.10
14008;DHT22;61651;45.508;12.232;2022-08-04T17:27:43;35.30;88.20
14008;DHT22;61651;45.508;12.232;2022-08-04T17:30:45;35.10;86.90
14008;DHT22;61651;45.508;12.232;2022-08-04T17:33:48;35.10;86.80
14008;DHT22;61651;45.508;12.232;2022-08-04T17:36:51;35.00;87.00
14008;DHT22;61651;45.508;12.232;2022-08-04T17:40:05;34.90;86.90
14008;DHT22;61651;45.508;12.232;2022-08-04T17:43:07;34.90;87.60
14008;DHT22;61651;45.508;12.232;2022-08-04T17:46:21;34.80;87.70
14008;DHT22;61651;45.508;12.232;2022-08-04T17:49:24;34.70;88.00
14008;DHT22;61651;45.508;12.232;2022-08-04T17:52:26;34.70;88.30
14008;DHT22;61651;45.508;12.232;2022-08-04T17:55:40;34.60;89.00
14008;DHT22;61651;45.508;12.232;2022-08-04T17:58:42;34.60;90.00
14008;DHT22;61651;45.508;12.232;2022-08-04T18:01:46;34.60;90.10
14008;DHT22;61651;45.508;12.232;2022-08-04T18:04:50;34.60;90.10
14008;DHT22;61651;45.508;12.232;2022-08-04T18:07:52;34.50;90.30
14008;DHT22;61651;45.508;12.232;2022-08-04T18:10:55;34.60;90.40
14008;DHT22;61651;45.508;12.232;2022-08-04T18:13:58;34.60;90.60
14008;DHT22;61651;45.508;12.232;2022-08-04T18:17:00;34.40;88.50
14008;DHT22;61651;45.508;12.232;2022-08-04T18:20:04;34.40;88.80
14008;DHT22;61651;45.508;12.232;2022-08-04T18:23:08;34.30;88.80
14008;DHT22;61651;45.508;12.232;2022-08-04T18:26:11;34.30;89.10
14008;DHT22;61651;45.508;12.232;2022-08-04T18:29:13;34.30;88.60
14008;DHT22;61651;45.508;12.232;2022-08-04T18:32:16;34.20;88.90
14008;DHT22;61651;45.508;12.232;2022-08-04T18:35:18;34.20;89.30
14008;DHT22;61651;45.508;12.232;2022-08-04T18:38:20;34.10;89.60
14008;DHT22;61651;45.508;12.232;2022-08-04T18:41:25;34.00;90.00
14008;DHT22;61651;45.508;12.232;2022-08-04T18:44:28;34.00;90.20
14008;DHT22;61651;45.508;12.232;2022-08-04T18:47:30;33.80;90.60
14008;DHT22;61651;45.508;12.232;2022-08-04T18:50:32;33.70;90.50
14008;DHT22;61651;45.508;12.232;2022-08-04T18:53:34;33.60;90.70
14008;DHT22;61651;45.508;12.232;2022-08-04T18:56:37;33.60;90.80
14008;DHT22;61651;45.508;12.232;2022-08-04T18:59:39;33.70;90.80
14008;DHT22;61651;45.508;12.232;2022-08-04T19:02:41;33.70;91.10
14008;DHT22;61651;45.508;12.232;2022-08-04T19:05:43;33.60;91.80
14008;DHT22;61651;45.508;12.232;2022-08-04T19:08:45;33.70;91.90
14008;DHT22;61651;45.508;12.232;2022-08-04T19:11:49;33.60;92.20
14008;DHT22;61651;45.508;12.232;2022-08-04T19:14:51;33.60;92.30
14008;DHT22;61651;45.508;12.232;2022-08-04T19:17:52;33.60;92.30
14008;DHT22;61651;45.508;12.232;2022-08-04T19:20:54;33.50;92.20
14008;DHT22;61651;45.508;12.232;2022-08-04T19:23:56;33.50;92.40
14008;DHT22;61651;45.508;12.232;2022-08-04T19:27:00;33.20;93.10
14008;DHT22;61651;45.508;12.232;2022-08-04T19:30:04;33.00;93.50
14008;DHT22;61651;45.508;12.232;2022-08-04T19:33:06;33.00;93.50
14008;DHT22;61651;45.508;12.232;2022-08-04T19:36:09;33.00;93.50
14008;DHT22;61651;45.508;12.232;2022-08-04T19:39:11;33.00;93.80
14008;DHT22;61651;45.508;12.232;2022-08-04T19:42:15;33.00;93.80
14008;DHT22;61651;45.508;12.232;2022-08-04T19:45:17;33.00;94.00
14008;DHT22;61651;45.508;12.232;2022-08-04T19:48:19;33.00;94.30
14008;DHT22;61651;45.508;12.232;2022-08-04T19:51:21;33.00;94.50
14008;DHT22;61651;45.508;12.232;2022-08-04T19:54:23;33.00;94.90
14008;DHT22;61651;45.508;12.232;2022-08-04T19:57:27;33.00;95.10
14008;DHT22;61651;45.508;12.232;2022-08-04T20:00:30;33.00;95.40
14008;DHT22;61651;45.508;12.232;2022-08-04T20:03:32;32.90;95.30
14008;DHT22;61651;45.508;12.232;2022-08-04T20:06:34;32.90;95.60
14008;DHT22;61651;45.508;12.232;2022-08-04T20:09:36;32.90;95.90
14008;DHT22;61651;45.508;12.232;2022-08-04T20:12:39;32.80;96.20
14008;DHT22;61651;45.508;12.232;2022-08-04T20:15:41;32.80;96.40
14008;DHT22;61651;45.508;12.232;2022-08-04T20:18:43;32.80;96.70